Time;durP1;ratioP1;P1;durP2;ratioP2;P2;SDS_P1;SDS_P2;PMS_P1;PMS_P2;Temp;Humidity;BMP_temperature;BMP_pressure;BME280_temperature;BME280_humidity;BME280_pressure;Samples;Min_cycle;Max_cycle;Signal;HPM_P1;HPM_P2
2022/06/10 00:00:56;;;;;;;;;;;;;;;17.88;88.05;100156.80;84811;1322;22595;-73
2022/06/10 00:03:00;;;;;;;;;;;;;;;17.86;87.96;100154.83;84821;1327;22614;-73
2022/06/10 00:05:08;;;;;;;;;;;;;;;17.84;88.04;100152.11;84822;1325;22564;-73
2022/06/10 00:07:16;;;;;;;;;;;;;;;17.83;88.45;100156.07;84804;1329;22605;-73
2022/06/10 00:09:40;;;;;;;;;;;;;;;17.83;88.28;100156.61;84808;1329;22576;-74
2022/06/10 00:11:44;;;;;;;;;;;;;;;17.83;88.43;100161.39;84792;1325;22575;-73
2022/06/10 00:13:47;;;;;;;;;;;;;;;17.83;88.42;100160.34;84790;1329;23940;-73
2022/06/10 00:15:54;;;;;;;;;;;;;;;17.83;88.39;100166.17;84793;1329;22590;-73
2022/06/10 00:17:57;;;;;;;;;;;;;;;17.83;88.33;100169.14;84796;1322;22574;-73
2022/06/10 00:20:01;;;;;;;;;;;;;;;17.84;88.17;100175.77;84797;1326;22816;-73
2022/06/10 00:22:07;;;;;;;;;;;;;;;17.82;88.21;100170.94;84798;1327;25333;-73
2022/06/10 00:24:10;;;;;;;;;;;;;;;17.81;87.98;100172.27;84786;1329;22529;-72
2022/06/10 00:26:14;;;;;;;;;;;;;;;17.80;87.95;100175.71;84789;1326;22546;-72
2022/06/10 00:28:17;;;;;;;;;;;;;;;17.79;88.08;100180.50;84785;1321;22602;-72
2022/06/10 00:30:22;;;;;;;;;;;;;;;17.79;87.97;100184.09;84799;1327;25380;-72
2022/06/10 00:32:26;;;;;;;;;;;;;;;17.77;87.99;100183.45;84794;1329;22590;-72
2022/06/10 00:34:29;;;;;;;;;;;;;;;17.76;87.88;100188.31;84792;1329;25245;-72
2022/06/10 00:36:33;;;;;;;;;;;;;;;17.74;87.89;100191.48;84795;1328;22615;-72
2022/06/10 00:38:37;;;;;;;;;;;;;;;17.73;88.11;100196.13;84791;1329;22599;-73
2022/06/10 00:40:41;;;;;;;;;;;;;;;17.71;88.04;100199.94;84794;1329;25237;-72
2022/06/10 00:42:45;;;;;;;;;;;;;;;17.71;88.08;100200.99;84772;1328;22586;-73
2022/06/10 00:44:52;;;;;;;;;;;;;;;17.70;88.16;100200.39;84804;1329;22612;-74
2022/06/10 00:46:55;;;;;;;;;;;;;;;17.68;88.11;100201.38;84791;1327;22759;-72
2022/06/10 00:49:03;;;;;;;;;;;;;;;17.67;88.11;100208.17;84751;1331;22797;-72
2022/06/10 00:51:14;;;;;;;;;;;;;;;17.67;88.47;100213.80;84813;1330;25420;-72
2022/06/10 00:53:19;;;;;;;;;;;;;;;17.67;88.60;100219.59;84808;1326;22839;-73
2022/06/10 00:55:28;;;;;;;;;;;;;;;17.67;88.46;100219.98;84814;1326;22607;-74
2022/06/10 01:00:02;;;;;;;;;;;;;;;17.69;88.40;100225.17;84783;1327;22582;-73
2022/06/10 01:02:35;;;;;;;;;;;;;;;17.68;88.37;100230.30;84794;1330;24254;-72
2022/06/10 01:04:55;;;;;;;;;;;;;;;17.68;88.17;100226.44;84778;1327;25534;-73
2022/06/10 01:07:32;;;;;;;;;;;;;;;17.69;88.07;100223.59;84775;1329;22649;-72
2022/06/10 01:10:01;;;;;;;;;;;;;;;17.64;87.89;100224.45;84790;1328;22577;-73
2022/06/10 01:12:48;;;;;;;;;;;;;;;17.62;87.95;100224.20;84797;1330;22574;-72
2022/06/10 01:15:00;;;;;;;;;;;;;;;17.57;87.50;100220.14;84550;1330;24300;-72
2022/06/10 01:17:08;;;;;;;;;;;;;;;17.52;87.58;100218.19;84789;1330;25419;-73
2022/06/10 01:19:23;;;;;;;;;;;;;;;17.49;87.68;100219.46;84789;1329;22578;-72
2022/06/10 01:21:43;;;;;;;;;;;;;;;17.48;87.77;100220.07;84810;1330;22573;-72
2022/06/10 01:24:15;;;;;;;;;;;;;;;17.44;87.53;100221.92;84799;1328;22579;-73
2022/06/10 01:27:47;;;;;;;;;;;;;;;17.38;87.51;100228.36;84793;1328;25237;-73
2022/06/10 01:29:08;;;;;;;;;;;;;;;17.32;87.27;100228.80;84802;1327;22596;-72
2022/06/10 01:31:18;;;;;;;;;;;;;;;17.26;87.30;100231.44;84814;1326;22805;-71
2022/06/10 01:33:26;;;;;;;;;;;;;;;17.24;87.35;100228.78;84791;1328;22578;-72
2022/06/10 01:35:36;;;;;;;;;;;;;;;17.21;87.27;100228.45;84838;1328;22663;-73
2022/06/10 01:37:40;;;;;;;;;;;;;;;17.18;87.48;100229.55;84787;1330;22578;-74
2022/06/10 01:39:47;;;;;;;;;;;;;;;17.15;87.38;100233.09;84807;1327;25437;-73
2022/06/10 01:41:53;;;;;;;;;;;;;;;17.11;87.31;100230.02;84797;1326;22527;-73
2022/06/10 01:44:01;;;;;;;;;;;;;;;17.05;87.32;100230.41;84827;1325;22597;-72
2022/06/10 01:46:06;;;;;;;;;;;;;;;17.00;87.29;100225.79;84814;1329;22561;-73
2022/06/10 01:48:14;;;;;;;;;;;;;;;16.97;87.26;100231.32;84809;1324;22793;-72
2022/06/10 01:50:21;;;;;;;;;;;;;;;16.93;87.38;100230.98;84792;1329;22596;-72
2022/06/10 01:52:32;;;;;;;;;;;;;;;16.91;87.51;100232.08;84771;1326;24190;-73
2022/06/10 01:54:38;;;;;;;;;;;;;;;16.89;87.48;100237.63;84790;1329;22680;-72
2022/06/10 01:56:44;;;;;;;;;;;;;;;16.85;87.49;100239.30;84796;1329;24321;-72
2022/06/10 01:58:49;;;;;;;;;;;;;;;16.85;87.56;100246.21;84810;1328;25424;-72
2022/06/10 02:00:55;;;;;;;;;;;;;;;16.82;87.52;100249.55;84784;1325;22562;-73
2022/06/10 02:03:01;;;;;;;;;;;;;;;16.80;87.34;100250.25;84797;1328;22587;-73
2022/06/10 02:05:07;;;;;;;;;;;;;;;16.75;87.25;100250.57;84818;1326;24283;-73
2022/06/10 02:07:13;;;;;;;;;;;;;;;16.73;87.56;100252.60;84798;1327;22977;-73
2022/06/10 02:09:18;;;;;;;;;;;;;;;16.71;87.40;100257.51;84808;1326;22597;-73
2022/06/10 02:11:23;;;;;;;;;;;;;;;16.67;87.42;100266.36;84790;1326;22603;-73
2022/06/10 02:13:30;;;;;;;;;;;;;;;16.66;87.55;100272.59;84807;1330;23787;-72
2022/06/10 02:15:34;;;;;;;;;;;;;;;16.65;87.47;100275.33;84803;1326;22590;-73
2022/06/10 02:17:46;;;;;;;;;;;;;;;16.63;87.71;100281.45;84827;1326;22566;-72
2022/06/10 02:19:52;;;;;;;;;;;;;;;16.61;87.63;100285.45;84823;1327;22913;-73
2022/06/10 02:21:57;;;;;;;;;;;;;;;16.56;87.65;100289.44;84824;1327;22596;-73
2022/06/10 02:24:04;;;;;;;;;;;;;;;16.56;88.00;100286.99;84792;1328;22606;-72
2022/06/10 02:26:07;;;;;;;;;;;;;;;16.57;87.91;100282.50;84812;1327;22564;-72
2022/06/10 02:28:11;;;;;;;;;;;;;;;16.58;88.05;100284.89;84836;1327;22656;-72
2022/06/10 02:30:17;;;;;;;;;;;;;;;16.60;88.20;100287.10;84790;1321;22656;-72
2022/06/10 02:32:21;;;;;;;;;;;;;;;16.58;88.01;100287.21;84826;1326;22614;-72
2022/06/10 02:34:24;;;;;;;;;;;;;;;16.55;87.89;100282.64;84748;1327;22579;-72
2022/06/10 02:36:32;;;;;;;;;;;;;;;16.53;87.87;100278.18;84766;1329;23945;-72
2022/06/10 02:38:39;;;;;;;;;;;;;;;16.53;87.96;100278.56;84830;1329;22933;-72
2022/06/10 02:40:46;;;;;;;;;;;;;;;16.54;88.07;100280.98;84826;1326;22747;-72
2022/06/10 02:42:54;;;;;;;;;;;;;;;16.55;88.26;100282.82;84809;1326;22610;-73
2022/06/10 02:45:02;;;;;;;;;;;;;;;16.54;88.13;100283.56;84820;1327;25439;-73
2022/06/10 02:47:09;;;;;;;;;;;;;;;16.53;88.17;100285.10;84852;1326;22605;-73
2022/06/10 02:49:16;;;;;;;;;;;;;;;16.56;88.57;100286.64;84849;1324;22813;-73
2022/06/10 02:51:20;;;;;;;;;;;;;;;16.60;88.73;100287.63;84852;1328;24240;-72
2022/06/10 02:53:28;;;;;;;;;;;;;;;16.62;88.80;100290.33;84845;1325;23853;-73
2022/06/10 02:55:34;;;;;;;;;;;;;;;16.64;88.75;100295.95;84852;1327;25880;-73
2022/06/10 03:02:30;;;;;;;;;;;;;;;16.81;89.29;100305.32;84566;1334;22608;-74
2022/06/10 03:04:38;;;;;;;;;;;;;;;16.85;89.24;100306.96;84845;1325;22565;-73
2022/06/10 03:06:51;;;;;;;;;;;;;;;16.92;89.37;100304.95;84868;1328;22848;-72
2022/06/10 03:08:58;;;;;;;;;;;;;;;16.98;89.43;100307.33;84843;1324;22586;-73
2022/06/10 03:11:08;;;;;;;;;;;;;;;17.05;89.34;100301.79;84835;1322;22732;-73
2022/06/10 03:13:21;;;;;;;;;;;;;;;17.11;89.21;100310.55;84860;1323;22578;-73
2022/06/10 03:15:37;;;;;;;;;;;;;;;17.15;89.25;100318.38;84864;1324;23079;-73
2022/06/10 03:17:44;;;;;;;;;;;;;;;17.20;89.01;100321.25;84866;1322;22615;-72
2022/06/10 03:19:53;;;;;;;;;;;;;;;17.19;88.89;100324.84;84827;1325;22612;-74
2022/06/10 03:22:00;;;;;;;;;;;;;;;17.17;88.74;100327.22;84868;1325;25278;-73
2022/06/10 03:24:08;;;;;;;;;;;;;;;17.20;88.78;100333.77;84846;1323;23936;-74
2022/06/10 03:26:16;;;;;;;;;;;;;;;17.24;88.97;100337.04;84901;1325;22600;-73
2022/06/10 03:37:36;;;;;;;;;;;;;;;18.47;89.63;100364.05;83492;1347;22610;-73
2022/06/10 03:39:41;;;;;;;;;;;;;;;18.74;88.65;100364.85;84079;1336;22592;-73
2022/06/10 03:41:56;;;;;;;;;;;;;;;18.85;87.83;100364.23;84424;1334;22587;-73
2022/06/10 03:44:01;;;;;;;;;;;;;;;18.95;87.48;100366.28;84886;1324;22569;-73
2022/06/10 03:46:07;;;;;;;;;;;;;;;19.22;87.71;100368.02;84855;1326;23936;-73
2022/06/10 03:48:11;;;;;;;;;;;;;;;19.70;88.09;100365.34;84861;1324;22580;-73
2022/06/10 03:50:17;;;;;;;;;;;;;;;20.26;88.65;100368.61;84842;1323;22651;-73
2022/06/10 03:52:26;;;;;;;;;;;;;;;20.89;87.17;100368.93;84846;1324;23817;-72
2022/06/10 03:54:38;;;;;;;;;;;;;;;21.54;86.38;100366.80;84855;1326;22838;-72
2022/06/10 03:56:42;;;;;;;;;;;;;;;22.27;83.71;100368.58;84602;1328;252890;-72
2022/06/10 03:58:48;;;;;;;;;;;;;;;22.74;80.72;100374.36;84834;1329;22855;-73
2022/06/10 04:00:53;;;;;;;;;;;;;;;23.27;78.82;100374.04;84820;1325;22928;-73
2022/06/10 04:02:57;;;;;;;;;;;;;;;23.73;76.40;100374.66;84856;1325;22567;-73
2022/06/10 04:05:00;;;;;;;;;;;;;;;24.14;73.67;100376.45;84837;1325;22592;-73
2022/06/10 04:07:05;;;;;;;;;;;;;;;24.36;71.79;100376.75;84853;1324;25441;-73
2022/06/10 04:09:08;;;;;;;;;;;;;;;24.54;71.10;100380.72;84845;1324;24229;-72
2022/06/10 04:11:13;;;;;;;;;;;;;;;24.87;69.84;100381.76;84841;1324;24358;-72
2022/06/10 04:13:20;;;;;;;;;;;;;;;24.71;68.28;100384.05;84862;1324;25435;-73
2022/06/10 04:15:25;;;;;;;;;;;;;;;24.40;67.93;100385.23;84862;1327;25932;-73
2022/06/10 04:17:29;;;;;;;;;;;;;;;24.20;68.13;100387.30;84845;1328;22601;-73
2022/06/10 04:19:32;;;;;;;;;;;;;;;24.05;68.12;100385.38;84860;1325;22557;-73
2022/06/10 04:21:35;;;;;;;;;;;;;;;24.08;68.63;100386.36;84816;1327;22759;-73
2022/06/10 04:23:39;;;;;;;;;;;;;;;24.25;68.61;100387.73;84829;1323;22634;-73
2022/06/10 04:25:44;;;;;;;;;;;;;;;24.36;67.64;100388.17;84843;1325;24688;-73
2022/06/10 04:27:47;;;;;;;;;;;;;;;24.22;66.76;100393.58;84869;1324;24205;-72
2022/06/10 04:29:51;;;;;;;;;;;;;;;24.10;66.88;100397.35;84838;1324;22631;-72
2022/06/10 04:31:54;;;;;;;;;;;;;;;24.07;67.46;100397.44;84822;1324;22587;-72
2022/06/10 04:33:57;;;;;;;;;;;;;;;24.24;67.62;100397.98;84842;1325;22573;-72
2022/06/10 04:36:01;;;;;;;;;;;;;;;24.41;67.16;100394.05;84841;1324;22572;-73
2022/06/10 04:38:04;;;;;;;;;;;;;;;24.60;66.50;100397.40;84807;1327;23839;-73
2022/06/10 04:40:11;;;;;;;;;;;;;;;24.73;66.19;100396.38;84868;1326;22597;-73
2022/06/10 04:42:14;;;;;;;;;;;;;;;24.79;65.71;100395.45;84869;1327;25421;-73
2022/06/10 04:44:17;;;;;;;;;;;;;;;24.79;65.43;100399.67;84902;1326;22562;-73
2022/06/10 04:46:24;;;;;;;;;;;;;;;24.96;65.61;100404.57;84919;1324;22625;-72
2022/06/10 04:48:27;;;;;;;;;;;;;;;25.17;64.74;100409.89;84916;1324;22628;-72
2022/06/10 04:50:31;;;;;;;;;;;;;;;25.51;64.80;100403.69;84889;1325;22563;-72
2022/06/10 04:52:35;;;;;;;;;;;;;;;25.81;63.68;100408.73;84914;1324;22557;-72
2022/06/10 04:54:38;;;;;;;;;;;;;;;26.09;62.64;100409.30;84911;1324;25428;-72
2022/06/10 04:56:41;;;;;;;;;;;;;;;26.43;62.14;100411.31;84898;1324;22578;-73
2022/06/10 04:58:45;;;;;;;;;;;;;;;26.82;61.18;100412.19;84903;1325;23955;-73
2022/06/10 05:00:49;;;;;;;;;;;;;;;27.18;59.83;100417.15;84917;1324;22712;-73
2022/06/10 05:02:52;;;;;;;;;;;;;;;27.37;58.92;100417.83;84914;1324;22603;-73
2022/06/10 05:04:56;;;;;;;;;;;;;;;27.69;58.98;100417.14;84911;1324;22602;-72
2022/06/10 05:07:02;;;;;;;;;;;;;;;27.99;57.51;100416.89;84941;1325;25286;-72
2022/06/10 05:09:05;;;;;;;;;;;;;;;28.16;56.76;100414.81;84908;1324;22565;-72
2022/06/10 05:11:09;;;;;;;;;;;;;;;28.32;56.21;100414.98;84901;1324;22656;-72
2022/06/10 05:13:12;;;;;;;;;;;;;;;28.54;55.77;100415.60;84913;1327;22578;-73
2022/06/10 05:15:16;;;;;;;;;;;;;;;29.04;55.25;100420.52;84901;1327;22658;-72
2022/06/10 05:29:28;;;;;;;;;;;;;;;31.88;47.18;100430.95;84599;1330;25563;-75
2022/06/10 05:31:32;;;;;;;;;;;;;;;32.18;46.51;100438.81;84541;1332;23130;-75
2022/06/10 05:36:07;;;;;;;;;;;;;;;32.99;45.35;100440.90;84869;1323;24356;-75
2022/06/10 05:42:09;;;;;;;;;;;;;;;34.18;41.46;100445.13;84624;1330;22710;-74
2022/06/10 05:44:13;;;;;;;;;;;;;;;34.60;40.70;100443.70;84647;1328;22592;-74
2022/06/10 05:46:25;;;;;;;;;;;;;;;34.78;39.47;100444.96;84914;1324;22575;-74
2022/06/10 05:48:33;;;;;;;;;;;;;;;34.95;38.86;100449.86;84899;1327;22558;-73
2022/06/10 05:50:37;;;;;;;;;;;;;;;35.01;39.53;100450.35;84897;1324;25485;-74
2022/06/10 05:52:42;;;;;;;;;;;;;;;35.05;38.85;100449.58;84885;1324;22528;-73
2022/06/10 05:54:47;;;;;;;;;;;;;;;35.25;37.90;100458.80;84899;1324;22585;-73
2022/06/10 05:56:54;;;;;;;;;;;;;;;35.45;36.97;100458.06;84796;1328;22599;-73
2022/06/10 05:59:08;;;;;;;;;;;;;;;35.59;37.23;100462.33;84900;1323;22627;-73
2022/06/10 06:01:22;;;;;;;;;;;;;;;35.95;37.01;100466.77;84855;1324;22681;-73
2022/06/10 06:03:31;;;;;;;;;;;;;;;36.13;35.89;100465.67;84841;1326;22589;-73
2022/06/10 06:05:35;;;;;;;;;;;;;;;36.10;36.09;100467.49;84857;1327;22835;-74
2022/06/10 06:07:39;;;;;;;;;;;;;;;36.25;36.32;100462.90;84842;1325;24255;-74
2022/06/10 06:09:42;;;;;;;;;;;;;;;36.37;35.50;100468.02;84855;1324;25432;-74
2022/06/10 06:11:47;;;;;;;;;;;;;;;36.10;35.32;100466.77;84839;1322;22570;-73
2022/06/10 06:13:54;;;;;;;;;;;;;;;35.56;35.17;100469.30;84864;1325;22564;-73
2022/06/10 06:16:00;;;;;;;;;;;;;;;35.19;36.14;100468.37;84861;1323;22581;-74
2022/06/10 06:18:05;;;;;;;;;;;;;;;34.80;36.20;100467.75;84842;1325;22571;-73
2022/06/10 06:20:12;;;;;;;;;;;;;;;34.30;36.94;100468.77;84901;1324;25296;-74
2022/06/10 06:22:15;;;;;;;;;;;;;;;33.94;36.97;100478.89;84929;1319;22667;-73
2022/06/10 06:24:18;;;;;;;;;;;;;;;33.62;37.43;100483.39;84862;1325;22561;-74
2022/06/10 06:26:22;;;;;;;;;;;;;;;33.39;38.44;100488.04;84869;1324;22565;-74
2022/06/10 06:28:27;;;;;;;;;;;;;;;33.28;38.38;100491.34;84902;1323;23974;-74
2022/06/10 06:30:31;;;;;;;;;;;;;;;33.23;39.06;100494.61;84910;1324;25237;-74
2022/06/10 06:32:35;;;;;;;;;;;;;;;33.36;39.14;100492.07;84946;1318;22602;-74
2022/06/10 06:34:38;;;;;;;;;;;;;;;33.30;38.99;100495.67;84892;1325;25424;-74
2022/06/10 06:36:45;;;;;;;;;;;;;;;33.30;39.18;100493.59;84899;1324;24213;-74
2022/06/10 06:38:48;;;;;;;;;;;;;;;33.15;38.62;100496.96;84915;1324;22994;-74
2022/06/10 06:40:51;;;;;;;;;;;;;;;32.99;39.63;100498.95;84878;1325;22508;-74
2022/06/10 06:42:55;;;;;;;;;;;;;;;33.06;39.47;100499.09;84901;1324;22586;-74
2022/06/10 06:45:00;;;;;;;;;;;;;;;33.34;39.07;100500.12;84890;1324;25925;-74
2022/06/10 06:47:07;;;;;;;;;;;;;;;33.57;39.03;100500.17;84901;1324;22589;-75
2022/06/10 06:49:13;;;;;;;;;;;;;;;33.82;38.36;100504.55;84898;1324;22546;-75
2022/06/10 06:51:17;;;;;;;;;;;;;;;33.98;37.50;100504.71;84905;1319;22585;-76
2022/06/10 06:53:20;;;;;;;;;;;;;;;34.19;37.26;100507.60;84888;1324;23751;-76
2022/06/10 06:55:23;;;;;;;;;;;;;;;34.72;37.49;100504.59;84890;1324;22655;-76
2022/06/10 06:57:27;;;;;;;;;;;;;;;35.42;37.01;100506.72;84840;1324;22595;-76
2022/06/10 06:59:30;;;;;;;;;;;;;;;35.84;35.54;100504.63;84852;1323;22561;-75
2022/06/10 07:01:34;;;;;;;;;;;;;;;36.07;34.71;100511.02;84826;1325;22604;-75
2022/06/10 07:03:38;;;;;;;;;;;;;;;35.98;34.59;100509.08;84850;1323;22557;-75
2022/06/10 07:05:42;;;;;;;;;;;;;;;36.01;34.82;100513.55;84847;1324;22606;-76
2022/06/10 07:07:45;;;;;;;;;;;;;;;35.96;34.49;100513.66;84879;1324;22558;-74
2022/06/10 07:09:49;;;;;;;;;;;;;;;35.81;33.39;100512.48;84850;1324;22645;-74
2022/06/10 07:11:52;;;;;;;;;;;;;;;35.80;33.78;100509.05;84861;1324;22722;-75
2022/06/10 07:13:55;;;;;;;;;;;;;;;35.90;34.11;100515.34;84841;1323;22571;-75
2022/06/10 07:15:59;;;;;;;;;;;;;;;35.97;34.12;100516.57;84827;1323;22609;-75
2022/06/10 07:18:02;;;;;;;;;;;;;;;36.07;34.14;100519.36;84834;1325;22856;-75
2022/06/10 07:20:07;;;;;;;;;;;;;;;36.14;34.04;100516.34;84850;1326;25413;-75
2022/06/10 07:22:11;;;;;;;;;;;;;;;36.39;33.79;100521.43;84876;1324;22593;-75
2022/06/10 07:24:15;;;;;;;;;;;;;;;36.66;33.24;100520.52;84821;1322;22830;-75
2022/06/10 07:26:18;;;;;;;;;;;;;;;36.95;33.11;100521.81;84844;1324;22641;-75
2022/06/10 07:28:21;;;;;;;;;;;;;;;36.96;32.84;100523.43;84829;1328;22982;-75
2022/06/10 07:30:27;;;;;;;;;;;;;;;36.96;32.70;100528.46;84838;1322;22882;-74
2022/06/10 07:32:30;;;;;;;;;;;;;;;37.25;32.53;100523.08;84861;1324;22554;-75
2022/06/10 07:34:34;;;;;;;;;;;;;;;37.33;32.45;100522.48;84845;1323;23999;-77
2022/06/10 07:36:39;;;;;;;;;;;;;;;37.75;32.12;100525.89;84856;1323;25394;-75
2022/06/10 07:38:42;;;;;;;;;;;;;;;37.91;31.03;100530.08;84881;1328;22571;-75
2022/06/10 07:43:09;;;;;;;;;;;;;;;37.99;31.33;100535.20;84886;1324;22584;-74
2022/06/10 07:45:12;;;;;;;;;;;;;;;38.12;31.14;100534.98;84897;1324;24361;-74
2022/06/10 07:47:22;;;;;;;;;;;;;;;38.55;30.34;100531.23;84872;1324;22565;-74
2022/06/10 07:49:25;;;;;;;;;;;;;;;38.86;29.88;100542.16;84827;1327;22543;-74
2022/06/10 07:51:28;;;;;;;;;;;;;;;38.58;29.46;100541.41;84865;1324;22593;-74
2022/06/10 07:53:31;;;;;;;;;;;;;;;38.36;29.41;100547.70;84830;1328;25443;-74
2022/06/10 07:55:38;;;;;;;;;;;;;;;38.44;30.01;100549.23;84875;1324;22728;-74
2022/06/10 07:57:42;;;;;;;;;;;;;;;38.49;28.86;100547.39;84861;1324;22582;-74
2022/06/10 08:00:31;;;;;;;;;;;;;;;37.89;28.96;100555.93;84727;1324;22567;-74
2022/06/10 08:03:09;;;;;;;;;;;;;;;38.09;28.51;100552.83;84820;1324;22567;-74
2022/06/10 08:05:15;;;;;;;;;;;;;;;38.08;28.74;100555.66;84894;1323;22566;-74
2022/06/10 08:07:19;;;;;;;;;;;;;;;38.29;28.94;100556.25;84902;1320;23879;-74
2022/06/10 08:09:36;;;;;;;;;;;;;;;38.52;28.60;100559.04;84895;1325;22810;-74
2022/06/10 08:11:43;;;;;;;;;;;;;;;38.81;28.40;100563.44;84901;1325;22588;-73
2022/06/10 08:13:46;;;;;;;;;;;;;;;38.55;27.01;100564.21;84871;1324;24244;-73
2022/06/10 08:18:31;;;;;;;;;;;;;;;38.16;27.22;100570.23;84836;1319;22678;-73
2022/06/10 08:23:11;;;;;;;;;;;;;;;38.21;28.10;100570.90;84730;1319;22645;-73
2022/06/10 08:25:14;;;;;;;;;;;;;;;38.60;28.11;100571.41;84846;1324;26019;-73
2022/06/10 08:27:17;;;;;;;;;;;;;;;38.97;27.57;100571.68;84877;1324;22514;-73
2022/06/10 08:29:27;;;;;;;;;;;;;;;39.08;26.71;100571.04;84874;1324;23098;-73
2022/06/10 08:31:31;;;;;;;;;;;;;;;39.01;27.18;100571.34;84892;1319;22560;-73
2022/06/10 08:33:35;;;;;;;;;;;;;;;39.27;28.19;100575.13;84894;1324;22590;-74
2022/06/10 08:36:16;;;;;;;;;;;;;;;38.99;26.50;100580.27;84804;1327;22840;-74
2022/06/10 08:38:36;;;;;;;;;;;;;;;38.94;27.92;100578.02;84898;1324;24003;-72
2022/06/10 08:41:41;;;;;;;;;;;;;;;39.32;27.12;100577.05;84877;1324;22589;-73
2022/06/10 08:44:37;;;;;;;;;;;;;;;39.38;26.42;100580.13;84841;1324;22649;-76
2022/06/10 08:50:35;;;;;;;;;;;;;;;38.63;27.59;100580.70;84807;1327;24230;-73
2022/06/10 08:52:42;;;;;;;;;;;;;;;38.59;26.74;100587.59;84837;1324;22667;-71
2022/06/10 08:54:55;;;;;;;;;;;;;;;38.27;27.88;100590.95;84787;1326;24231;-72
2022/06/10 08:57:10;;;;;;;;;;;;;;;38.00;27.67;100589.55;84799;1325;22554;-72
2022/06/10 09:09:33;;;;;;;;;;;;;;;36.88;29.74;100605.17;84665;1330;22593;-73
2022/06/10 09:11:51;;;;;;;;;;;;;;;36.78;29.23;100609.83;84564;1328;22624;-73
2022/06/10 09:13:57;;;;;;;;;;;;;;;36.37;29.55;100610.34;84659;1330;25445;-72
2022/06/10 09:16:11;;;;;;;;;;;;;;;36.27;30.21;100610.96;84671;1330;22614;-72
2022/06/10 09:18:28;;;;;;;;;;;;;;;36.08;29.48;100613.31;84655;1330;22697;-72
2022/06/10 09:20:37;;;;;;;;;;;;;;;35.71;29.69;100617.05;84725;1325;22578;-78
2022/06/10 09:23:05;;;;;;;;;;;;;;;35.32;30.19;100620.92;84642;1331;22570;-77
2022/06/10 09:25:10;;;;;;;;;;;;;;;35.02;31.46;100618.95;84647;1328;22724;-76
2022/06/10 09:27:17;;;;;;;;;;;;;;;34.88;32.09;100623.71;84706;1324;22900;-76
2022/06/10 09:29:20;;;;;;;;;;;;;;;34.74;31.71;100625.06;84630;1330;22583;-76
2022/06/10 09:31:35;;;;;;;;;;;;;;;34.51;32.52;100625.07;84615;1329;22699;-76
2022/06/10 09:33:42;;;;;;;;;;;;;;;34.13;32.91;100626.55;84662;1328;22609;-76
2022/06/10 09:35:51;;;;;;;;;;;;;;;33.77;33.44;100629.53;84682;1328;22850;-80
2022/06/10 09:37:57;;;;;;;;;;;;;;;33.68;34.50;100629.66;84846;1328;24054;-79
2022/06/10 09:42:30;;;;;;;;;;;;;;;33.68;33.65;100632.91;84937;1324;25273;-78
2022/06/10 09:45:03;;;;;;;;;;;;;;;33.43;34.03;100636.88;84859;1324;25223;-73
2022/06/10 09:47:47;;;;;;;;;;;;;;;33.36;35.05;100640.30;84606;1329;22751;-73
2022/06/10 10:01:38;;;;;;;;;;;;;;;32.36;36.10;100640.57;84448;1333;24243;-73
2022/06/10 10:25:47;;;;;;;;;;;;;;;31.29;39.56;100650.16;83442;1345;22793;-74
2022/06/10 10:27:50;;;;;;;;;;;;;;;31.25;39.21;100653.71;84314;1332;22579;-74
2022/06/10 10:29:56;;;;;;;;;;;;;;;31.35;39.38;100653.78;84699;1328;24340;-74
2022/06/10 10:32:04;;;;;;;;;;;;;;;31.36;39.61;100650.27;84860;1324;22609;-71
2022/06/10 10:34:11;;;;;;;;;;;;;;;31.52;39.54;100648.98;84855;1324;22536;-71
2022/06/10 10:36:25;;;;;;;;;;;;;;;31.58;39.39;100646.48;84867;1326;22586;-71
2022/06/10 10:38:32;;;;;;;;;;;;;;;31.43;38.89;100653.73;84871;1324;23237;-71
2022/06/10 10:40:39;;;;;;;;;;;;;;;31.28;39.30;100658.23;84889;1324;22570;-72
2022/06/10 10:42:43;;;;;;;;;;;;;;;31.21;38.96;100655.39;84840;1322;22790;-71
2022/06/10 10:44:47;;;;;;;;;;;;;;;31.15;39.37;100655.27;84865;1326;22586;-71
2022/06/10 10:47:00;;;;;;;;;;;;;;;31.21;39.42;100654.42;84854;1324;22580;-71
2022/06/10 10:49:05;;;;;;;;;;;;;;;31.21;39.29;100654.68;84852;1320;24204;-76
2022/06/10 10:51:29;;;;;;;;;;;;;;;31.18;39.50;100655.63;84892;1325;23894;-79
2022/06/10 10:53:44;;;;;;;;;;;;;;;31.14;39.14;100657.07;84916;1324;22603;-78
2022/06/10 10:56:18;;;;;;;;;;;;;;;30.98;39.31;100662.40;84915;1328;23903;-78
2022/06/10 10:58:30;;;;;;;;;;;;;;;30.72;39.60;100664.17;84858;1327;22583;-78
2022/06/10 11:00:37;;;;;;;;;;;;;;;30.50;39.79;100666.81;84880;1326;24249;-78
2022/06/10 11:02:42;;;;;;;;;;;;;;;30.11;39.75;100668.82;85047;1323;22585;-79
2022/06/10 11:04:45;;;;;;;;;;;;;;;29.76;40.29;100669.46;84954;1323;25416;-78
2022/06/10 11:06:49;;;;;;;;;;;;;;;29.67;41.52;100671.33;84953;1319;22568;-77
2022/06/10 11:08:57;;;;;;;;;;;;;;;29.79;41.58;100669.20;84924;1324;25420;-78
2022/06/10 11:11:03;;;;;;;;;;;;;;;29.96;41.45;100669.34;84882;1324;22516;-78
2022/06/10 11:13:07;;;;;;;;;;;;;;;30.09;41.49;100669.96;84918;1324;24944;-78
2022/06/10 11:15:20;;;;;;;;;;;;;;;30.15;41.25;100671.81;84920;1324;22578;-77
2022/06/10 11:17:24;;;;;;;;;;;;;;;30.20;40.90;100670.17;84929;1324;22594;-77
2022/06/10 11:19:42;;;;;;;;;;;;;;;30.14;41.12;100675.86;84873;1324;22596;-77
2022/06/10 11:21:55;;;;;;;;;;;;;;;30.23;41.21;100675.58;84936;1324;22583;-77
2022/06/10 11:23:58;;;;;;;;;;;;;;;30.37;40.69;100668.95;84905;1323;22602;-78
2022/06/10 12:00:37;;;;;;;;;;;;;;;30.16;40.93;100669.64;83110;1355;22646;-77
2022/06/10 12:07:06;;;;;;;;;;;;;;;29.09;42.66;100685.65;83458;1347;22588;-77
2022/06/10 12:12:58;;;;;;;;;;;;;;;28.29;44.49;100685.85;83549;1343;22609;-77
2022/06/10 12:15:15;;;;;;;;;;;;;;;28.22;44.51;100684.15;83663;1340;26021;-78
2022/06/10 12:17:23;;;;;;;;;;;;;;;28.30;45.26;100685.64;84383;1335;24088;-77
2022/06/10 12:19:29;;;;;;;;;;;;;;;28.27;44.77;100685.21;84657;1331;22578;-78
2022/06/10 12:21:32;;;;;;;;;;;;;;;28.17;45.01;100684.68;84717;1322;22578;-78
2022/06/10 12:23:37;;;;;;;;;;;;;;;28.07;45.14;100684.89;84990;1328;22578;-78
2022/06/10 12:25:49;;;;;;;;;;;;;;;27.93;45.30;100685.65;84960;1323;22579;-78
2022/06/10 12:27:55;;;;;;;;;;;;;;;27.89;45.97;100687.53;84947;1320;22571;-77
2022/06/10 12:30:02;;;;;;;;;;;;;;;27.92;46.32;100684.15;84912;1323;22740;-77
2022/06/10 12:32:12;;;;;;;;;;;;;;;28.00;46.74;100683.49;84920;1324;24264;-78
2022/06/10 12:34:22;;;;;;;;;;;;;;;27.96;46.28;100691.25;84850;1324;22552;-72
2022/06/10 12:36:27;;;;;;;;;;;;;;;27.77;46.40;100696.52;84859;1324;22578;-72
2022/06/10 12:38:33;;;;;;;;;;;;;;;27.52;46.56;100700.21;84836;1325;22715;-72
2022/06/10 12:40:39;;;;;;;;;;;;;;;27.29;46.97;100701.66;84867;1324;22878;-72
2022/06/10 12:42:44;;;;;;;;;;;;;;;27.08;47.17;100707.02;84866;1324;25485;-72
2022/06/10 12:44:49;;;;;;;;;;;;;;;26.89;47.48;100708.80;84869;1325;22581;-70
2022/06/10 12:46:57;;;;;;;;;;;;;;;26.81;48.09;100710.50;84858;1327;22617;-72
2022/06/10 12:49:05;;;;;;;;;;;;;;;26.69;48.28;100710.23;84839;1323;25453;-71
2022/06/10 12:51:32;;;;;;;;;;;;;;;26.62;48.96;100711.89;84856;1323;22580;-76
2022/06/10 12:53:48;;;;;;;;;;;;;;;26.54;48.83;100713.89;84824;1327;22589;-76
2022/06/10 12:55:53;;;;;;;;;;;;;;;26.56;49.45;100716.09;84845;1325;22863;-75
2022/06/10 12:57:56;;;;;;;;;;;;;;;26.57;49.61;100714.73;84857;1325;22716;-76
2022/06/10 13:00:32;;;;;;;;;;;;;;;26.65;49.90;100717.09;84826;1326;25424;-76
2022/06/10 13:02:39;;;;;;;;;;;;;;;26.67;49.48;100725.29;84839;1322;27809;-76
2022/06/10 13:04:57;;;;;;;;;;;;;;;26.54;49.25;100725.54;84842;1324;22956;-74
2022/06/10 13:07:00;;;;;;;;;;;;;;;26.30;49.40;100728.11;84832;1326;23948;-76
2022/06/10 13:09:31;;;;;;;;;;;;;;;26.10;49.52;100730.64;84870;1322;22574;-76
2022/06/10 13:11:39;;;;;;;;;;;;;;;25.91;50.24;100730.45;84879;1324;22578;-76
2022/06/10 13:13:42;;;;;;;;;;;;;;;25.97;50.64;100733.44;84872;1328;23932;-76